createdAt,value
2018-05-29T00:00:47.480Z,24.85
2018-05-29T00:03:13.708Z,24.83
2018-05-29T00:05:39.978Z,24.83
2018-05-29T00:08:06.220Z,24.84
2018-05-29T00:10:32.438Z,24.80
2018-05-29T00:12:58.718Z,24.80
2018-05-29T00:15:24.939Z,24.80
2018-05-29T00:17:51.166Z,24.76
2018-05-29T00:20:17.445Z,24.74
2018-05-29T00:22:43.663Z,24.73
2018-05-29T00:25:09.890Z,24.72
2018-05-29T00:27:36.170Z,24.70
2018-05-29T00:30:02.390Z,24.67
2018-05-29T00:32:28.625Z,24.62
2018-05-29T00:34:54.886Z,24.57
2018-05-29T00:37:21.121Z,24.59
2018-05-29T00:39:47.347Z,24.54
2018-05-29T00:42:13.611Z,24.53
2018-05-29T00:44:39.836Z,24.54
2018-05-29T00:47:06.105Z,24.55
2018-05-29T00:49:32.365Z,24.55
2018-05-29T00:51:58.583Z,24.50
2018-05-29T00:54:24.851Z,24.47
2018-05-29T00:56:51.114Z,24.53
2018-05-29T00:59:17.347Z,24.44
2018-05-29T01:01:43.591Z,24.39
2018-05-29T01:04:09.871Z,24.39
2018-05-29T01:06:36.124Z,24.37
2018-05-29T01:09:02.434Z,24.39
2018-05-29T01:11:28.722Z,24.39
2018-05-29T01:13:54.939Z,24.37
2018-05-29T01:16:21.173Z,24.38
2018-05-29T01:18:47.437Z,24.42
2018-05-29T01:21:13.692Z,24.44
2018-05-29T01:23:39.915Z,24.43
2018-05-29T01:26:06.166Z,24.40
2018-05-29T01:28:32.409Z,24.39
2018-05-29T01:30:58.647Z,24.35
2018-05-29T01:33:24.911Z,24.33
2018-05-29T01:35:51.150Z,24.28
2018-05-29T01:38:17.390Z,24.27
2018-05-29T01:40:43.662Z,24.22
2018-05-29T01:43:09.899Z,24.19
2018-05-29T01:45:36.135Z,24.16
2018-05-29T01:48:02.382Z,24.17
2018-05-29T01:50:28.623Z,24.13
2018-05-29T01:52:54.902Z,24.16
2018-05-29T01:55:21.173Z,24.11
2018-05-29T01:57:47.386Z,24.13
2018-05-29T02:00:13.657Z,24.10
2018-05-29T02:02:39.887Z,24.05
2018-05-29T02:05:06.138Z,24.06
2018-05-29T02:07:32.415Z,24.03
2018-05-29T02:09:58.658Z,23.99
2018-05-29T02:12:24.890Z,24.01
2018-05-29T02:14:51.166Z,23.97
2018-05-29T02:17:17.396Z,23.96
2018-05-29T02:19:43.625Z,23.94
2018-05-29T02:22:09.862Z,23.88
2018-05-29T02:24:36.126Z,23.91
2018-05-29T02:27:02.387Z,23.96
2018-05-29T02:29:28.634Z,23.99
2018-05-29T02:31:54.872Z,23.98
2018-05-29T02:34:21.134Z,24.02
2018-05-29T02:36:47.379Z,24.02
2018-05-29T02:39:13.635Z,24.01
2018-05-29T02:41:39.866Z,24.00
2018-05-29T02:44:06.117Z,23.99
2018-05-29T02:46:32.370Z,23.98
2018-05-29T02:48:58.594Z,23.97
2018-05-29T02:51:24.874Z,23.98
2018-05-29T02:53:51.114Z,23.98
2018-05-29T02:56:17.343Z,23.99
2018-05-29T02:58:43.585Z,23.97
2018-05-29T03:01:09.825Z,24.00
2018-05-29T03:03:36.090Z,23.96
2018-05-29T03:06:02.331Z,23.94
2018-05-29T03:08:28.600Z,23.88
2018-05-29T03:10:54.886Z,23.85
2018-05-29T03:13:21.118Z,23.89
2018-05-29T03:15:47.366Z,23.97
2018-05-29T03:18:13.594Z,23.98
2018-05-29T03:20:39.882Z,23.97
2018-05-29T03:23:06.184Z,23.98
2018-05-29T03:25:32.410Z,23.96
2018-05-29T03:27:58.706Z,23.94
2018-05-29T03:30:24.934Z,23.94
2018-05-29T03:32:51.176Z,23.94
2018-05-29T03:35:17.455Z,23.90
2018-05-29T03:37:43.690Z,23.98
2018-05-29T03:40:09.961Z,24.04
2018-05-29T03:42:36.210Z,24.01
2018-05-29T03:45:02.475Z,24.00
2018-05-29T03:47:28.734Z,24.02
2018-05-29T03:49:54.982Z,23.98
2018-05-29T03:52:21.238Z,23.99
2018-05-29T03:54:47.466Z,24.00
2018-05-29T03:57:13.762Z,23.96
2018-05-29T03:59:40.021Z,23.98
2018-05-29T04:02:06.262Z,24.00
2018-05-29T04:04:32.523Z,23.98
2018-05-29T04:06:58.760Z,23.93
2018-05-29T04:09:25.038Z,23.90
2018-05-29T04:11:52.399Z,23.96
2018-05-29T04:14:18.647Z,23.96
2018-05-29T04:16:44.908Z,23.90
2018-05-29T04:19:11.145Z,24.00
2018-05-29T04:21:37.374Z,24.06
2018-05-29T04:24:03.614Z,24.05
2018-05-29T04:26:29.847Z,24.08
2018-05-29T04:28:56.126Z,24.08
2018-05-29T04:31:22.355Z,24.05
2018-05-29T04:33:48.583Z,23.98
2018-05-29T04:36:14.827Z,23.93
2018-05-29T04:38:41.086Z,24.00
2018-05-29T04:41:07.399Z,24.01
2018-05-29T04:43:33.626Z,23.95
2018-05-29T04:45:59.874Z,23.97
2018-05-29T04:48:26.126Z,24.01
2018-05-29T04:50:52.386Z,24.06
2018-05-29T04:53:18.650Z,24.07
2018-05-29T04:55:44.867Z,24.04
2018-05-29T04:58:11.111Z,24.12
2018-05-29T05:00:37.371Z,24.18
2018-05-29T05:03:03.641Z,24.15
2018-05-29T05:05:29.898Z,24.18
2018-05-29T05:07:56.138Z,24.18
2018-05-29T05:10:22.366Z,24.06
2018-05-29T05:12:48.613Z,24.05
2018-05-29T05:15:14.849Z,24.07
2018-05-29T05:17:41.119Z,24.18
2018-05-29T05:20:07.420Z,24.21
2018-05-29T05:22:33.639Z,24.17
2018-05-29T05:24:59.890Z,24.28
2018-05-29T05:27:26.138Z,24.38
2018-05-29T05:29:52.421Z,24.40
2018-05-29T05:32:18.646Z,24.35
2018-05-29T05:34:44.881Z,24.48
2018-05-29T05:37:11.127Z,24.53
2018-05-29T05:39:37.434Z,24.66
2018-05-29T05:42:03.732Z,24.66
2018-05-29T05:44:29.979Z,24.73
2018-05-29T05:46:56.210Z,24.70
2018-05-29T05:49:22.454Z,24.81
2018-05-29T05:51:48.673Z,24.95
2018-05-29T05:54:14.932Z,25.04
2018-05-29T05:56:41.150Z,25.05
2018-05-29T05:59:07.366Z,25.11
2018-05-29T06:01:33.611Z,25.21
2018-05-29T06:03:59.831Z,25.23
2018-05-29T06:06:26.046Z,25.24
2018-05-29T06:08:52.294Z,25.28
2018-05-29T06:11:18.527Z,25.37
2018-05-29T06:13:44.794Z,25.53
2018-05-29T06:16:11.051Z,25.76
2018-05-29T06:18:37.286Z,25.87
2018-05-29T06:21:03.525Z,25.92
2018-05-29T06:23:29.774Z,25.97
2018-05-29T06:25:55.999Z,26.04
2018-05-29T06:28:22.250Z,26.13
2018-05-29T06:30:48.475Z,26.17
2018-05-29T06:33:14.703Z,26.26
2018-05-29T06:35:40.950Z,26.35
2018-05-29T06:38:07.213Z,26.38
2018-05-29T06:40:33.441Z,26.55
2018-05-29T06:42:59.666Z,26.65
2018-05-29T06:45:25.911Z,26.71
2018-05-29T06:47:52.158Z,26.80
2018-05-29T06:50:18.391Z,26.84
2018-05-29T06:52:44.646Z,26.79
2018-05-29T06:55:10.862Z,26.97
2018-05-29T06:57:37.079Z,27.14
2018-05-29T07:00:03.378Z,27.09
2018-05-29T07:02:29.598Z,27.31
2018-05-29T07:04:55.848Z,27.43
2018-05-29T07:07:22.091Z,27.53
2018-05-29T07:09:48.305Z,27.69
2018-05-29T07:12:14.574Z,27.70
2018-05-29T07:14:40.798Z,27.84
2018-05-29T07:17:07.054Z,27.93
2018-05-29T07:19:33.282Z,27.88
2018-05-29T07:21:59.508Z,28.01
2018-05-29T07:24:25.762Z,28.06
2018-05-29T07:26:51.986Z,28.26
2018-05-29T07:29:18.290Z,28.37
2018-05-29T07:31:44.514Z,28.48
2018-05-29T07:34:10.754Z,28.71
2018-05-29T07:36:37.005Z,28.85
2018-05-29T07:39:03.283Z,28.66
2018-05-29T07:41:29.558Z,28.83
2018-05-29T07:43:55.807Z,28.97
2018-05-29T07:46:22.054Z,29.10
2018-05-29T07:48:48.303Z,29.24
2018-05-29T07:51:14.538Z,29.36
2018-05-29T07:53:40.820Z,29.42
2018-05-29T07:56:07.075Z,29.46
2018-05-29T07:58:33.313Z,29.59
2018-05-29T08:00:59.588Z,29.63
2018-05-29T08:03:25.823Z,29.92
2018-05-29T08:05:52.076Z,30.10
2018-05-29T08:08:18.307Z,30.34
2018-05-29T08:10:44.607Z,30.45
2018-05-29T08:13:10.875Z,30.63
2018-05-29T08:15:37.131Z,30.66
2018-05-29T08:18:03.422Z,30.85
2018-05-29T08:20:29.651Z,31.10
2018-05-29T08:22:55.876Z,31.24
2018-05-29T08:25:22.135Z,31.43
2018-05-29T08:27:48.366Z,31.59
2018-05-29T08:30:14.629Z,31.75
2018-05-29T08:32:40.870Z,32.15
2018-05-29T08:35:07.107Z,32.12
2018-05-29T08:37:33.380Z,32.35
2018-05-29T08:39:59.607Z,32.72
2018-05-29T08:42:25.898Z,32.99
2018-05-29T08:44:52.132Z,33.20
2018-05-29T08:47:18.370Z,33.37
2018-05-29T08:49:44.627Z,33.76
2018-05-29T08:52:10.859Z,33.95
2018-05-29T08:54:37.122Z,34.04
2018-05-29T08:57:03.391Z,34.27
2018-05-29T08:59:29.615Z,34.46
2018-05-29T09:01:55.871Z,34.62
2018-05-29T09:04:22.168Z,34.75
2018-05-29T09:06:48.414Z,34.85
2018-05-29T09:09:14.679Z,34.85
2018-05-29T09:11:40.919Z,34.96
2018-05-29T09:14:07.159Z,34.96
2018-05-29T09:16:33.403Z,35.17
2018-05-29T09:18:59.699Z,35.23
2018-05-29T09:21:25.934Z,35.31
2018-05-29T09:23:52.155Z,35.55
2018-05-29T09:26:18.398Z,35.54
2018-05-29T09:28:44.629Z,35.74
2018-05-29T09:31:10.886Z,36.22
2018-05-29T09:33:37.110Z,36.23
2018-05-29T09:36:03.404Z,36.42
2018-05-29T09:38:29.652Z,36.71
2018-05-29T09:40:55.874Z,36.70
2018-05-29T09:43:22.170Z,36.44
2018-05-29T09:45:48.439Z,36.45
2018-05-29T09:48:14.684Z,36.50
2018-05-29T09:50:40.954Z,36.83
2018-05-29T09:53:07.182Z,37.06
2018-05-29T09:55:33.434Z,36.81
2018-05-29T09:57:59.657Z,36.69
2018-05-29T10:00:31.895Z,36.70
2018-05-29T10:02:58.138Z,36.80
2018-05-29T10:05:24.370Z,37.01
2018-05-29T10:07:50.606Z,36.79
2018-05-29T10:10:16.891Z,36.94
2018-05-29T10:12:43.115Z,37.26
2018-05-29T10:15:09.354Z,37.51
2018-05-29T10:17:35.599Z,37.84
2018-05-29T10:20:01.831Z,37.80
2018-05-29T10:22:28.067Z,37.74
2018-05-29T10:24:54.354Z,37.60
2018-05-29T10:27:20.570Z,37.87
2018-05-29T10:29:46.790Z,37.68
2018-05-29T10:32:13.060Z,37.65
2018-05-29T10:34:39.283Z,37.64
2018-05-29T10:37:05.534Z,37.83
2018-05-29T10:39:31.759Z,38.38
2018-05-29T10:41:57.994Z,38.94
2018-05-29T10:44:24.247Z,39.04
2018-05-29T10:46:50.460Z,39.17
2018-05-29T10:49:16.710Z,39.04
2018-05-29T10:51:42.939Z,38.99
2018-05-29T10:54:09.167Z,39.28
2018-05-29T10:56:35.426Z,39.55
2018-05-29T10:59:01.682Z,39.54
2018-05-29T11:01:27.946Z,39.78
2018-05-29T11:03:54.166Z,39.73
2018-05-29T11:06:20.458Z,39.08
2018-05-29T11:08:46.705Z,39.15
2018-05-29T11:11:12.972Z,39.56
2018-05-29T11:13:39.219Z,39.63
2018-05-29T11:16:05.456Z,40.08
2018-05-29T11:18:31.701Z,40.34
2018-05-29T11:20:57.962Z,40.64
2018-05-29T11:23:24.182Z,40.50
2018-05-29T11:25:50.449Z,40.71
2018-05-29T11:28:16.690Z,40.63
2018-05-29T11:30:42.907Z,40.79
2018-05-29T11:33:09.178Z,40.85
2018-05-29T11:35:35.398Z,40.93
2018-05-29T11:38:01.694Z,40.88
2018-05-29T11:40:27.927Z,41.03
2018-05-29T11:42:54.154Z,41.01
2018-05-29T11:45:20.414Z,40.66
2018-05-29T11:47:46.634Z,40.73
2018-05-29T11:50:12.923Z,41.61
2018-05-29T11:52:39.159Z,41.40
2018-05-29T11:55:05.447Z,41.56
2018-05-29T11:57:31.698Z,41.59
2018-05-29T11:59:57.927Z,41.60
2018-05-29T12:02:24.256Z,41.74
2018-05-29T12:04:57.474Z,41.94
2018-05-29T12:07:23.802Z,41.77
2018-05-29T12:09:50.034Z,41.88
2018-05-29T12:12:24.295Z,41.80
2018-05-29T12:14:50.551Z,42.14
2018-05-29T12:17:16.798Z,42.24
2018-05-29T12:19:43.058Z,42.31
2018-05-29T12:22:09.294Z,42.02
2018-05-29T12:24:35.563Z,41.98
2018-05-29T12:27:01.818Z,42.26
2018-05-29T12:29:28.063Z,42.01
2018-05-29T12:31:54.323Z,42.18
2018-05-29T12:34:20.555Z,42.67
2018-05-29T12:36:46.834Z,42.92
2018-05-29T12:39:13.085Z,42.65
2018-05-29T12:41:39.329Z,42.65
2018-05-29T12:44:05.583Z,42.83
2018-05-29T12:46:31.815Z,42.77
2018-05-29T12:48:58.074Z,42.66
2018-05-29T12:51:24.338Z,42.64
2018-05-29T12:53:50.582Z,43.23
2018-05-29T12:56:16.838Z,42.81
2018-05-29T12:58:43.114Z,43.13
2018-05-29T13:01:09.401Z,43.47
2018-05-29T13:03:35.630Z,44.14
2018-05-29T13:06:01.855Z,43.88
2018-05-29T13:08:28.123Z,43.59
2018-05-29T13:10:54.351Z,43.56
2018-05-29T13:13:20.643Z,43.53
2018-05-29T13:15:46.874Z,43.63
2018-05-29T13:18:13.103Z,44.17
2018-05-29T13:20:39.358Z,44.36
2018-05-29T13:23:05.595Z,44.23
2018-05-29T13:25:31.856Z,42.54
2018-05-29T13:27:58.157Z,41.89
2018-05-29T13:30:24.370Z,42.38
2018-05-29T13:32:50.627Z,43.06
2018-05-29T13:35:16.882Z,43.57
2018-05-29T13:37:43.145Z,43.56
2018-05-29T13:40:09.375Z,43.22
2018-05-29T13:42:35.607Z,42.90
2018-05-29T13:45:01.885Z,42.98
2018-05-29T13:47:28.136Z,41.99
2018-05-29T13:49:54.394Z,39.82
2018-05-29T13:52:20.622Z,38.84
2018-05-29T13:54:46.865Z,38.16
2018-05-29T13:57:13.135Z,39.68
2018-05-29T13:59:39.367Z,41.27
2018-05-29T14:02:05.670Z,41.82
2018-05-29T14:04:31.903Z,41.67
2018-05-29T14:06:58.129Z,41.82
2018-05-29T14:09:24.379Z,42.23
2018-05-29T14:11:50.602Z,42.79
2018-05-29T14:14:16.887Z,43.12
2018-05-29T14:16:43.161Z,43.29
2018-05-29T14:19:09.405Z,43.49
2018-05-29T14:21:35.670Z,42.83
2018-05-29T14:24:01.887Z,40.50
2018-05-29T14:26:28.145Z,39.08
2018-05-29T14:28:54.371Z,37.73
2018-05-29T14:31:20.586Z,37.17
2018-05-29T14:33:46.831Z,36.50
2018-05-29T14:36:13.058Z,35.79
2018-05-29T14:38:39.303Z,35.05
2018-05-29T14:41:05.549Z,34.63
2018-05-29T14:43:31.781Z,34.43
2018-05-29T14:45:58.042Z,34.28
2018-05-29T14:48:24.262Z,34.58
2018-05-29T14:50:50.527Z,35.73
2018-05-29T14:53:16.808Z,36.59
2018-05-29T14:55:43.050Z,36.97
2018-05-29T14:58:09.269Z,35.91
2018-05-29T15:00:35.535Z,34.87
2018-05-29T15:03:01.767Z,34.25
2018-05-29T15:05:28.043Z,33.86
2018-05-29T15:07:54.254Z,33.68
2018-05-29T15:10:20.476Z,33.47
2018-05-29T15:12:46.731Z,33.71
2018-05-29T15:15:12.968Z,33.87
2018-05-29T15:17:39.223Z,34.06
2018-05-29T15:20:05.477Z,34.17
2018-05-29T15:22:31.722Z,34.17
2018-05-29T15:24:58.006Z,34.15
2018-05-29T15:27:24.446Z,33.78
2018-05-29T15:29:50.709Z,33.68
2018-05-29T15:32:16.943Z,33.50
2018-05-29T15:34:43.199Z,33.38
2018-05-29T15:37:09.458Z,33.30
2018-05-29T15:39:35.683Z,32.98
2018-05-29T15:42:01.959Z,32.69
2018-05-29T15:44:28.202Z,32.57
2018-05-29T15:46:54.623Z,32.44
2018-05-29T15:49:20.878Z,32.35
2018-05-29T15:51:47.127Z,32.28
2018-05-29T15:54:13.395Z,32.11
2018-05-29T15:56:39.634Z,32.05
2018-05-29T15:59:05.895Z,32.15
2018-05-29T16:01:32.126Z,32.18
2018-05-29T16:03:58.395Z,32.23
2018-05-29T16:06:24.654Z,32.36
2018-05-29T16:08:50.893Z,32.23
2018-05-29T16:11:17.209Z,31.97
2018-05-29T16:13:43.654Z,31.88
2018-05-29T16:16:09.928Z,31.82
2018-05-29T16:18:36.177Z,31.75
2018-05-29T16:21:02.418Z,31.66
2018-05-29T16:23:28.691Z,31.68
2018-05-29T16:25:54.929Z,31.70
2018-05-29T16:28:21.174Z,31.74
2018-05-29T16:30:47.470Z,31.69
2018-05-29T16:33:13.702Z,31.74
2018-05-29T16:35:39.955Z,31.68
2018-05-29T16:38:06.202Z,31.64
2018-05-29T16:40:32.461Z,31.55
2018-05-29T16:42:58.723Z,31.50
2018-05-29T16:45:24.959Z,31.51
2018-05-29T16:47:51.231Z,31.59
2018-05-29T16:50:17.490Z,31.56
2018-05-29T16:52:43.710Z,31.46
2018-05-29T16:55:09.966Z,31.38
2018-05-29T16:57:36.218Z,31.38
2018-05-29T17:00:02.531Z,31.32
2018-05-29T17:02:28.754Z,31.30
2018-05-29T17:04:54.989Z,31.24
2018-05-29T17:07:21.233Z,31.17
2018-05-29T17:09:47.479Z,31.12
2018-05-29T17:12:13.723Z,31.04
2018-05-29T17:14:39.971Z,31.08
2018-05-29T17:17:06.259Z,30.98
2018-05-29T17:19:32.527Z,30.95
2018-05-29T17:21:58.754Z,30.84
2018-05-29T17:24:25.029Z,30.85
2018-05-29T17:26:51.274Z,30.82
2018-05-29T17:29:17.546Z,30.82
2018-05-29T17:31:43.795Z,30.82
2018-05-29T17:34:10.032Z,30.77
2018-05-29T17:36:36.294Z,30.79
2018-05-29T17:39:02.598Z,30.75
2018-05-29T17:41:28.882Z,30.72
2018-05-29T17:43:55.131Z,30.67
2018-05-29T17:46:21.393Z,30.59
2018-05-29T17:48:47.647Z,30.56
2018-05-29T17:51:13.886Z,30.54
2018-05-29T17:53:40.378Z,30.50
2018-05-29T17:56:06.615Z,30.45
2018-05-29T17:58:32.834Z,30.46
2018-05-29T18:00:59.107Z,30.41
2018-05-29T18:03:25.370Z,30.38
2018-05-29T18:05:51.620Z,30.38
2018-05-29T18:08:17.903Z,30.39
2018-05-29T18:10:44.134Z,30.32
2018-05-29T18:13:10.354Z,30.31
2018-05-29T18:15:36.606Z,30.23
2018-05-29T18:18:02.855Z,30.04
2018-05-29T18:20:29.147Z,29.93
2018-05-29T18:22:55.402Z,29.86
2018-05-29T18:25:21.641Z,29.81
2018-05-29T18:27:47.894Z,29.70
2018-05-29T18:30:14.142Z,29.58
2018-05-29T18:32:40.402Z,29.48
2018-05-29T18:35:06.663Z,29.43
2018-05-29T18:37:32.919Z,29.41
2018-05-29T18:39:59.172Z,29.36
2018-05-29T18:42:25.428Z,29.32
2018-05-29T18:44:51.699Z,29.28
2018-05-29T18:47:17.925Z,29.14
2018-05-29T18:49:44.167Z,29.03
2018-05-29T18:52:10.427Z,28.96
2018-05-29T18:54:36.667Z,28.97
2018-05-29T18:57:02.967Z,28.88
2018-05-29T18:59:29.198Z,28.80
2018-05-29T19:01:55.460Z,28.73
2018-05-29T19:04:21.728Z,28.76
2018-05-29T19:06:48.023Z,28.73
2018-05-29T19:09:14.306Z,28.69
2018-05-29T19:11:40.812Z,28.67
2018-05-29T19:14:07.182Z,28.72
2018-05-29T19:16:33.736Z,28.67
2018-05-29T19:19:00.048Z,28.56
2018-05-29T19:21:26.371Z,28.53
2018-05-29T19:23:52.609Z,28.52
2018-05-29T19:26:18.838Z,28.46
2018-05-29T19:28:45.322Z,28.47
2018-05-29T19:31:11.731Z,28.42
2018-05-29T19:33:37.998Z,28.26
2018-05-29T19:36:04.283Z,28.29
2018-05-29T19:38:30.929Z,28.28
2018-05-29T19:40:57.242Z,28.20
2018-05-29T19:43:23.738Z,28.11
2018-05-29T19:45:50.308Z,28.12
2018-05-29T19:48:16.642Z,28.11
2018-05-29T19:50:43.091Z,28.07
2018-05-29T19:53:09.379Z,28.04
2018-05-29T19:55:35.916Z,27.96
2018-05-29T19:58:02.535Z,28.00
2018-05-29T20:00:28.927Z,27.96
2018-05-29T20:02:55.279Z,27.96
2018-05-29T20:05:21.638Z,27.96
2018-05-29T20:07:47.981Z,27.93
2018-05-29T20:10:14.391Z,27.86
2018-05-29T20:12:40.881Z,27.78
2018-05-29T20:15:07.173Z,27.71
2018-05-29T20:17:33.426Z,27.61
2018-05-29T20:19:59.677Z,27.52
2018-05-29T20:22:26.310Z,27.46
2018-05-29T20:24:52.780Z,27.36
2018-05-29T20:27:19.135Z,27.24
2018-05-29T20:29:45.550Z,27.10
2018-05-29T20:32:11.839Z,27.09
2018-05-29T20:34:38.215Z,27.02
2018-05-29T20:37:04.621Z,26.94
2018-05-29T20:39:30.952Z,26.84
2018-05-29T20:41:57.252Z,26.81
2018-05-29T20:44:23.586Z,26.79
2018-05-29T20:46:50.018Z,26.66
2018-05-29T20:49:16.283Z,26.60
2018-05-29T20:51:42.709Z,26.57
2018-05-29T20:54:09.222Z,26.49
2018-05-29T20:56:35.612Z,26.43
2018-05-29T20:59:01.941Z,26.47
2018-05-29T21:01:28.216Z,26.42
2018-05-29T21:03:54.446Z,26.21
2018-05-29T21:06:21.090Z,26.23
2018-05-29T21:08:47.497Z,26.26
2018-05-29T21:11:13.779Z,26.25
2018-05-29T21:13:40.267Z,26.26
2018-05-29T21:16:06.586Z,26.20
2018-05-29T21:18:33.084Z,26.13
2018-05-29T21:21:00.373Z,26.18
2018-05-29T21:23:26.634Z,26.18
2018-05-29T21:25:53.068Z,26.16
2018-05-29T21:28:19.379Z,26.14
2018-05-29T21:30:45.955Z,26.17
2018-05-29T21:33:12.233Z,26.10
2018-05-29T21:35:38.821Z,26.07
2018-05-29T21:38:05.351Z,26.06
2018-05-29T21:40:31.928Z,26.01
2018-05-29T21:42:58.516Z,25.98
2018-05-29T21:45:24.755Z,25.97
2018-05-29T21:47:51.031Z,25.87
2018-05-29T21:50:17.592Z,25.81
2018-05-29T21:52:44.144Z,25.76
2018-05-29T21:55:11.089Z,25.71
2018-05-29T21:57:37.359Z,25.67
2018-05-29T22:00:03.747Z,25.61
2018-05-29T22:02:30.191Z,25.48
2018-05-29T22:04:56.555Z,25.51
2018-05-29T22:07:22.919Z,25.51
2018-05-29T22:09:49.464Z,25.36
2018-05-29T22:12:16.158Z,25.26
2018-05-29T22:14:42.722Z,25.28
2018-05-29T22:17:09.023Z,25.17
2018-05-29T22:19:35.278Z,25.10
2018-05-29T22:22:01.725Z,25.00
2018-05-29T22:24:28.107Z,25.07
2018-05-29T22:26:54.659Z,25.20
2018-05-29T22:29:20.935Z,25.20
2018-05-29T22:31:47.199Z,25.22
2018-05-29T22:34:13.754Z,25.19
2018-05-29T22:36:40.131Z,25.15
2018-05-29T22:39:06.591Z,25.10
2018-05-29T22:41:33.035Z,25.04
2018-05-29T22:43:59.423Z,25.05
2018-05-29T22:46:25.888Z,25.06
2018-05-29T22:48:52.258Z,24.91
2018-05-29T22:51:18.519Z,24.97
2018-05-29T22:53:44.814Z,24.90
2018-05-29T22:56:11.329Z,24.81
2018-05-29T22:58:37.639Z,24.86
2018-05-29T23:01:04.193Z,24.89
2018-05-29T23:03:30.694Z,24.87
2018-05-29T23:05:57.000Z,24.87
2018-05-29T23:08:23.623Z,24.75
2018-05-29T23:10:49.917Z,24.73
2018-05-29T23:13:16.263Z,24.76
2018-05-29T23:15:42.860Z,24.76
2018-05-29T23:18:09.491Z,24.74
2018-05-29T23:20:35.826Z,24.79
2018-05-29T23:23:02.042Z,24.76
2018-05-29T23:25:28.481Z,24.68
2018-05-29T23:27:54.746Z,24.54
2018-05-29T23:30:20.994Z,24.69
2018-05-29T23:32:47.234Z,24.48
2018-05-29T23:35:13.521Z,24.56
2018-05-29T23:37:39.751Z,24.55
2018-05-29T23:40:05.983Z,24.28
2018-05-29T23:42:32.247Z,24.29
2018-05-29T23:44:58.727Z,24.13
2018-05-29T23:47:24.957Z,24.09
2018-05-29T23:49:51.237Z,24.29
2018-05-29T23:52:17.499Z,24.43
2018-05-29T23:54:43.747Z,24.35
2018-05-29T23:57:10.019Z,24.12
2018-05-29T23:59:36.255Z,23.86
